createdAt,value
2023-02-08T00:01:35.045Z,20.90
2023-02-08T00:04:04.058Z,21.80
2023-02-08T00:06:34.212Z,16.33
2023-02-08T00:09:04.035Z,19.90
2023-02-08T00:11:32.899Z,18.97
2023-02-08T00:14:01.642Z,20.57
2023-02-08T00:16:30.578Z,20.77
2023-02-08T00:18:59.347Z,20.13
2023-02-08T00:21:28.208Z,22.77
2023-02-08T00:23:58.484Z,20.13
2023-02-08T00:26:27.333Z,21.27
2023-02-08T00:28:56.084Z,20.83
2023-02-08T00:31:25.096Z,23.67
2023-02-08T00:33:54.672Z,21.40
2023-02-08T00:36:23.485Z,22.70
2023-02-08T00:38:52.340Z,20.40
2023-02-08T00:41:22.824Z,22.23
2023-02-08T00:43:51.578Z,22.00
2023-02-08T00:46:20.863Z,24.63
2023-02-08T00:48:49.810Z,25.37
2023-02-08T00:51:18.624Z,24.50
2023-02-08T00:53:47.703Z,26.90
2023-02-08T00:56:17.304Z,26.17
2023-02-08T00:58:47.509Z,26.30
2023-02-08T01:01:16.399Z,24.13
2023-02-08T01:03:45.502Z,22.00
2023-02-08T01:06:18.538Z,23.50
2023-02-08T01:08:47.362Z,23.97
2023-02-08T01:11:18.837Z,22.10
2023-02-08T01:13:49.740Z,21.70
2023-02-08T01:16:20.263Z,21.23
2023-02-08T01:18:51.686Z,18.63
2023-02-08T01:21:22.518Z,16.70
2023-02-08T01:23:51.573Z,17.00
2023-02-08T01:26:21.487Z,18.70
2023-02-08T01:28:52.834Z,20.53
2023-02-08T01:31:23.323Z,16.57
2023-02-08T01:33:52.421Z,16.90
2023-02-08T01:36:21.126Z,16.30
2023-02-08T01:38:50.200Z,13.73
2023-02-08T01:41:21.625Z,16.63
2023-02-08T01:44:48.795Z,16.83
2023-02-08T01:47:17.847Z,13.87
2023-02-08T01:49:46.616Z,17.90
2023-02-08T01:52:18.791Z,16.40
2023-02-08T01:54:51.316Z,19.07
2023-02-08T01:57:21.531Z,12.80
2023-02-08T01:59:56.404Z,19.80
2023-02-08T02:02:26.601Z,18.50
2023-02-08T02:04:56.053Z,17.03
2023-02-08T02:07:30.057Z,17.50
2023-02-08T02:10:04.699Z,24.93
2023-02-08T02:12:34.605Z,16.30
2023-02-08T02:15:05.283Z,12.63
2023-02-08T02:17:34.308Z,13.37
2023-02-08T02:20:08.936Z,15.47
2023-02-08T02:23:19.739Z,14.47
2023-02-08T02:26:25.719Z,15.70
2023-02-08T02:29:23.169Z,12.73
2023-02-08T02:32:11.600Z,14.73
2023-02-08T02:34:46.674Z,10.57
2023-02-08T02:37:27.718Z,8.03
2023-02-08T02:40:05.037Z,8.13
2023-02-08T02:43:05.707Z,9.63
2023-02-08T02:45:37.941Z,9.90
2023-02-08T02:48:14.970Z,8.80
2023-02-08T02:50:47.115Z,8.03
2023-02-08T02:53:22.139Z,9.73
2023-02-08T02:55:56.090Z,8.83
2023-02-08T02:58:28.007Z,8.63
2023-02-08T03:00:58.038Z,10.97
2023-02-08T03:03:30.261Z,11.03
2023-02-08T03:06:02.219Z,15.10
2023-02-08T03:08:51.300Z,11.07
2023-02-08T03:11:23.773Z,12.70
2023-02-08T03:14:15.125Z,11.90
2023-02-08T03:17:03.645Z,14.63
2023-02-08T03:19:40.233Z,10.37
2023-02-08T03:22:16.106Z,14.30
2023-02-08T03:24:53.362Z,12.83
2023-02-08T03:27:30.079Z,12.37
2023-02-08T03:30:03.276Z,17.07
2023-02-08T03:32:40.127Z,13.63
2023-02-08T03:35:16.572Z,12.30
2023-02-08T03:37:49.550Z,12.77
2023-02-08T03:40:22.716Z,14.87
2023-02-08T03:42:54.076Z,12.17
2023-02-08T03:45:26.523Z,14.30
2023-02-08T03:47:58.830Z,12.10
2023-02-08T03:50:31.338Z,13.90
2023-02-08T03:53:00.927Z,10.90
2023-02-08T03:55:33.428Z,15.03
2023-02-08T03:58:07.983Z,18.17
2023-02-08T04:00:40.753Z,14.23
2023-02-08T04:03:15.153Z,14.00
2023-02-08T04:05:46.022Z,15.90
2023-02-08T04:08:14.902Z,19.17
2023-02-08T04:10:43.693Z,12.90
2023-02-08T04:13:12.393Z,14.37
2023-02-08T04:15:41.213Z,13.63
2023-02-08T04:18:10.004Z,13.00
2023-02-08T04:20:38.958Z,15.10
2023-02-08T04:23:09.400Z,17.63
2023-02-08T04:25:38.156Z,17.60
2023-02-08T04:28:07.222Z,16.20
2023-02-08T04:30:36.021Z,14.73
2023-02-08T04:33:05.234Z,13.93
2023-02-08T04:35:34.482Z,12.90
2023-02-08T04:38:03.220Z,16.63
2023-02-08T04:40:33.508Z,16.10
2023-02-08T04:43:02.672Z,15.67
2023-02-08T04:45:32.411Z,19.93
2023-02-08T04:48:04.121Z,11.43
2023-02-08T04:50:32.890Z,15.03
2023-02-08T04:53:01.612Z,18.20
2023-02-08T04:55:30.336Z,19.53
2023-02-08T04:58:00.659Z,16.13
2023-02-08T05:00:29.519Z,16.87
2023-02-08T05:02:59.428Z,16.03
2023-02-08T05:05:28.644Z,14.73
2023-02-08T05:07:57.448Z,17.53
2023-02-08T05:10:26.400Z,18.43
2023-02-08T05:12:55.439Z,14.80
2023-02-08T05:15:25.610Z,12.77
2023-02-08T05:17:54.384Z,16.30
2023-02-08T05:20:23.124Z,16.60
2023-02-08T05:22:51.813Z,15.80
2023-02-08T05:25:20.695Z,14.90
2023-02-08T05:27:49.481Z,15.40
2023-02-08T05:30:18.468Z,19.70
2023-02-08T05:32:48.653Z,17.60
2023-02-08T05:35:17.480Z,20.30
2023-02-08T05:37:46.171Z,24.40
2023-02-08T05:40:14.928Z,15.13
2023-02-08T05:42:44.757Z,18.60
2023-02-08T05:45:13.482Z,18.90
2023-02-08T05:47:42.162Z,20.33
2023-02-08T05:50:12.383Z,24.80
2023-02-08T05:52:41.532Z,20.47
2023-02-08T05:55:10.582Z,25.17
2023-02-08T05:57:39.349Z,25.47
2023-02-08T06:00:09.145Z,24.17
2023-02-08T06:02:38.020Z,25.43
2023-02-08T06:05:07.169Z,26.00
2023-02-08T06:07:37.302Z,22.10
2023-02-08T06:10:09.660Z,34.63
2023-02-08T06:12:39.191Z,27.83
2023-02-08T06:15:08.396Z,27.20
2023-02-08T06:17:37.082Z,32.83
2023-02-08T06:20:06.564Z,29.50
2023-02-08T06:22:38.470Z,24.60
2023-02-08T06:25:21.455Z,22.40
2023-02-08T06:27:50.106Z,28.37
2023-02-08T06:30:18.979Z,27.97
2023-02-08T06:32:48.049Z,24.10
2023-02-08T06:35:16.765Z,44.23
2023-02-08T06:37:46.878Z,28.00
2023-02-08T06:40:15.617Z,31.90
2023-02-08T06:42:44.460Z,32.57
2023-02-08T06:45:13.781Z,48.50
2023-02-08T06:47:42.510Z,38.97
2023-02-08T06:50:15.481Z,37.60
2023-02-08T06:52:45.546Z,40.60
2023-02-08T06:55:14.189Z,42.90
2023-02-08T06:57:42.800Z,44.87
2023-02-08T07:00:12.690Z,48.87
2023-02-08T07:02:41.383Z,45.20
2023-02-08T07:05:10.461Z,46.13
2023-02-08T07:07:39.126Z,43.87
2023-02-08T07:10:09.701Z,55.93
2023-02-08T07:12:39.183Z,44.20
2023-02-08T07:15:08.377Z,47.63
2023-02-08T07:17:36.989Z,37.60
2023-02-08T07:20:05.991Z,38.43
2023-02-08T07:22:34.709Z,37.90
2023-02-08T07:25:03.564Z,35.30
2023-02-08T07:27:33.946Z,37.63
2023-02-08T07:30:02.690Z,41.27
2023-02-08T07:32:34.366Z,34.43
2023-02-08T07:35:03.512Z,32.70
2023-02-08T07:37:33.287Z,33.63
2023-02-08T07:40:02.033Z,37.03
2023-02-08T07:42:30.747Z,38.67
2023-02-08T07:45:00.906Z,36.50
2023-02-08T07:47:29.609Z,32.17
2023-02-08T07:49:58.489Z,31.30
2023-02-08T07:52:27.498Z,33.17
2023-02-08T07:54:56.478Z,36.73
2023-02-08T07:57:25.256Z,33.77
2023-02-08T07:59:54.274Z,32.47
2023-02-08T08:02:24.585Z,36.77
2023-02-08T08:04:54.772Z,32.17
2023-02-08T08:07:23.590Z,33.87
2023-02-08T08:09:52.378Z,35.07
2023-02-08T08:12:21.135Z,35.60
2023-02-08T08:14:49.943Z,35.80
2023-02-08T08:17:18.840Z,35.93
2023-02-08T08:19:49.005Z,34.60
2023-02-08T08:22:17.691Z,36.93
2023-02-08T08:24:46.414Z,30.90
2023-02-08T08:27:15.119Z,32.47
2023-02-08T08:29:43.937Z,34.00
2023-02-08T08:32:12.746Z,35.50
2023-02-08T08:34:41.531Z,36.80
2023-02-08T08:37:12.240Z,34.80
2023-02-08T08:39:41.029Z,39.87
2023-02-08T08:42:10.041Z,45.20
2023-02-08T08:44:39.673Z,35.13
2023-02-08T08:47:09.752Z,34.33
2023-02-08T08:49:38.480Z,36.70
2023-02-08T08:52:08.331Z,34.50
2023-02-08T08:54:38.626Z,38.47
2023-02-08T08:57:07.844Z,36.40
2023-02-08T08:59:36.643Z,38.30
2023-02-08T09:02:08.483Z,32.40
2023-02-08T09:04:41.217Z,37.27
2023-02-08T09:07:10.728Z,32.57
2023-02-08T09:09:41.166Z,41.23
2023-02-08T09:12:10.146Z,37.23
2023-02-08T09:14:38.885Z,36.87
2023-02-08T09:17:07.905Z,32.87
2023-02-08T09:19:36.586Z,31.43
2023-02-08T09:22:07.384Z,33.33
2023-02-08T09:24:36.322Z,36.93
2023-02-08T09:27:07.271Z,33.50
2023-02-08T09:29:36.321Z,33.03
2023-02-08T09:32:05.200Z,32.40
2023-02-08T09:34:34.133Z,37.77
2023-02-08T09:37:02.997Z,30.53
2023-02-08T09:39:31.910Z,33.93
2023-02-08T09:42:24.318Z,36.87
2023-02-08T09:45:31.095Z,35.80
2023-02-08T09:48:03.840Z,30.87
2023-02-08T09:50:37.266Z,34.73
2023-02-08T09:53:13.045Z,29.73
2023-02-08T09:55:45.562Z,32.40
2023-02-08T09:58:29.303Z,31.77
2023-02-08T10:01:06.025Z,32.90
2023-02-08T10:03:38.643Z,33.53
2023-02-08T10:06:11.071Z,37.30
2023-02-08T10:08:40.782Z,40.60
2023-02-08T10:11:31.430Z,31.80
2023-02-08T10:14:22.969Z,36.60
2023-02-08T10:17:02.771Z,38.10
2023-02-08T10:19:48.990Z,35.97
2023-02-08T10:22:28.833Z,33.93
2023-02-08T10:25:24.743Z,37.77
2023-02-08T10:28:06.415Z,33.50
2023-02-08T10:30:46.414Z,33.43
2023-02-08T10:33:23.807Z,36.67
2023-02-08T10:35:53.176Z,34.97
2023-02-08T10:38:37.136Z,34.10
2023-02-08T10:41:18.573Z,38.37
2023-02-08T10:43:53.271Z,36.80
2023-02-08T10:46:31.108Z,38.37
2023-02-08T10:49:08.442Z,33.43
2023-02-08T10:51:38.586Z,39.03
2023-02-08T10:54:07.674Z,39.33
2023-02-08T10:56:46.484Z,36.90
2023-02-08T10:59:21.746Z,34.47
2023-02-08T11:01:52.374Z,34.97
2023-02-08T11:04:21.313Z,41.23
2023-02-08T11:06:52.077Z,35.17
2023-02-08T11:09:27.916Z,35.33
2023-02-08T11:11:57.570Z,29.57
2023-02-08T11:14:45.434Z,33.77
2023-02-08T11:17:28.248Z,31.97
2023-02-08T11:20:00.090Z,34.53
2023-02-08T11:22:31.751Z,39.97
2023-02-08T11:25:01.805Z,37.53
2023-02-08T11:27:36.548Z,34.83
2023-02-08T11:30:24.641Z,36.90
2023-02-08T11:33:18.757Z,37.73
2023-02-08T11:35:57.160Z,38.07
2023-02-08T11:38:28.801Z,34.23
2023-02-08T11:40:59.554Z,35.63
2023-02-08T11:43:30.610Z,36.60
2023-02-08T11:46:01.166Z,34.60
2023-02-08T11:48:40.792Z,35.13
2023-02-08T11:51:10.035Z,33.23
2023-02-08T11:53:44.339Z,40.17
2023-02-08T11:56:19.855Z,33.67
2023-02-08T11:58:59.581Z,35.30
2023-02-08T12:01:31.511Z,35.47
2023-02-08T12:04:03.869Z,37.80
2023-02-08T12:07:03.034Z,37.90
2023-02-08T12:09:52.250Z,34.43
2023-02-08T12:12:28.580Z,54.40
2023-02-08T12:15:08.974Z,33.80
2023-02-08T12:18:03.684Z,39.27
2023-02-08T12:20:42.971Z,33.40
2023-02-08T12:23:55.308Z,38.10
2023-02-08T12:26:46.899Z,25.17
2023-02-08T12:29:46.968Z,34.80
2023-02-08T12:32:47.591Z,42.23
2023-02-08T12:36:03.069Z,32.13
2023-02-08T12:39:18.600Z,35.83
2023-02-08T12:41:58.624Z,38.27
2023-02-08T12:44:37.466Z,40.07
2023-02-08T12:47:20.565Z,39.10
2023-02-08T12:50:07.390Z,30.80
2023-02-08T12:52:40.510Z,41.00
2023-02-08T12:55:19.723Z,42.03
2023-02-08T12:57:54.542Z,37.37
2023-02-08T13:00:25.625Z,38.13
2023-02-08T13:03:03.604Z,42.27
2023-02-08T13:05:37.364Z,40.90
2023-02-08T13:08:28.084Z,41.07
2023-02-08T13:11:14.022Z,39.10
2023-02-08T13:13:51.770Z,36.90
2023-02-08T13:16:24.273Z,44.97
2023-02-08T13:19:19.517Z,37.53
2023-02-08T13:21:48.302Z,39.77
2023-02-08T13:24:28.852Z,42.97
2023-02-08T13:26:57.689Z,39.90
2023-02-08T13:29:28.329Z,38.77
2023-02-08T13:32:01.733Z,44.63
2023-02-08T13:34:36.216Z,40.60
2023-02-08T13:37:16.531Z,38.13
2023-02-08T13:39:49.393Z,38.23
2023-02-08T13:42:24.738Z,39.87
2023-02-08T13:44:55.747Z,36.10
2023-02-08T13:47:28.011Z,39.77
2023-02-08T13:50:01.113Z,37.67
2023-02-08T13:52:51.357Z,39.63
2023-02-08T13:55:56.567Z,37.23
2023-02-08T13:59:00.913Z,39.03
2023-02-08T14:01:31.052Z,36.07
2023-02-08T14:04:32.100Z,39.53
2023-02-08T14:07:15.494Z,35.13
2023-02-08T14:09:51.355Z,34.40
2023-02-08T14:12:29.551Z,29.73
2023-02-08T14:15:32.852Z,31.40
2023-02-08T14:18:02.999Z,32.73
2023-02-08T14:20:40.993Z,32.47
2023-02-08T14:23:23.596Z,28.93
2023-02-08T14:25:55.217Z,34.80
2023-02-08T14:28:34.361Z,36.70
2023-02-08T14:31:08.297Z,36.33
2023-02-08T14:33:40.361Z,39.07
2023-02-08T14:36:23.566Z,40.10
2023-02-08T14:39:23.829Z,48.00
2023-02-08T14:42:00.546Z,42.70
2023-02-08T14:45:00.143Z,51.63
2023-02-08T14:48:00.269Z,48.73
2023-02-08T14:50:32.834Z,47.30
2023-02-08T14:53:19.747Z,43.27
2023-02-08T14:55:52.070Z,47.00
2023-02-08T14:58:29.306Z,50.80
2023-02-08T15:01:02.292Z,50.90
2023-02-08T15:03:34.825Z,51.03
2023-02-08T15:06:50.215Z,48.90
2023-02-08T15:09:22.430Z,43.53
2023-02-08T15:11:59.971Z,47.53
2023-02-08T15:14:29.289Z,43.90
2023-02-08T15:16:58.475Z,47.17
2023-02-08T15:19:32.108Z,54.50
2023-02-08T15:22:19.007Z,46.93
2023-02-08T15:24:54.974Z,52.97
2023-02-08T15:27:26.220Z,48.10
2023-02-08T15:29:55.711Z,46.93
2023-02-08T15:32:26.653Z,47.60
2023-02-08T15:34:59.283Z,45.83
2023-02-08T15:37:30.236Z,50.60
2023-02-08T15:40:01.009Z,50.47
2023-02-08T15:42:34.528Z,49.10
2023-02-08T15:45:04.807Z,55.17
2023-02-08T15:47:36.216Z,52.60
2023-02-08T15:50:09.305Z,54.07
2023-02-08T15:52:38.970Z,49.77
2023-02-08T15:55:10.726Z,53.80
2023-02-08T15:57:44.349Z,60.23
2023-02-08T16:00:18.846Z,52.33
2023-02-08T16:02:54.109Z,55.60
2023-02-08T16:05:27.406Z,53.00
2023-02-08T16:07:57.329Z,59.03
2023-02-08T16:10:34.069Z,52.33
2023-02-08T16:13:06.107Z,51.37
2023-02-08T16:15:45.352Z,56.20
2023-02-08T16:18:40.048Z,59.10
2023-02-08T16:21:23.046Z,50.03
2023-02-08T16:23:53.933Z,75.53
2023-02-08T16:26:27.550Z,58.33
2023-02-08T16:29:01.445Z,56.93
2023-02-08T16:31:33.192Z,57.73
2023-02-08T16:34:05.196Z,60.70
2023-02-08T16:36:42.868Z,61.13
2023-02-08T16:39:42.635Z,55.77
2023-02-08T16:42:37.183Z,62.90
2023-02-08T16:45:28.360Z,64.83
2023-02-08T16:48:09.886Z,67.70
2023-02-08T16:50:55.461Z,60.97
2023-02-08T16:53:41.936Z,64.90
2023-02-08T16:56:15.190Z,58.10
2023-02-08T16:58:53.393Z,65.53
2023-02-08T17:01:28.938Z,56.43
2023-02-08T17:03:58.610Z,59.20
2023-02-08T17:06:33.688Z,63.20
2023-02-08T17:09:06.435Z,69.10
2023-02-08T17:11:36.215Z,61.13
2023-02-08T17:14:06.614Z,67.90
2023-02-08T17:16:39.356Z,58.00
2023-02-08T17:19:09.041Z,68.87
2023-02-08T17:21:39.319Z,61.57
2023-02-08T17:24:11.370Z,51.77
2023-02-08T17:26:45.182Z,57.17
2023-02-08T17:29:16.737Z,62.87
2023-02-08T17:31:47.916Z,61.17
2023-02-08T17:34:23.694Z,57.40
2023-02-08T17:36:54.040Z,53.63
2023-02-08T17:39:26.446Z,57.87
2023-02-08T17:41:57.058Z,62.60
2023-02-08T17:44:44.383Z,56.50
2023-02-08T17:47:14.406Z,56.10
2023-02-08T17:49:46.190Z,57.20
2023-02-08T17:52:16.032Z,51.47
2023-02-08T17:54:47.143Z,50.60
2023-02-08T17:57:20.285Z,49.03
2023-02-08T17:59:50.370Z,54.57
2023-02-08T18:02:23.610Z,54.43
2023-02-08T18:04:55.075Z,53.50
2023-02-08T18:07:25.108Z,61.27
2023-02-08T18:09:57.852Z,52.27
2023-02-08T18:12:27.765Z,57.53
2023-02-08T18:14:58.024Z,54.90
2023-02-08T18:17:28.931Z,59.40
2023-02-08T18:20:06.102Z,53.77
2023-02-08T18:22:36.956Z,53.57
2023-02-08T18:25:23.408Z,58.47
2023-02-08T18:28:03.096Z,53.57
2023-02-08T18:30:37.730Z,51.00
2023-02-08T18:33:07.995Z,57.70
2023-02-08T18:35:38.474Z,63.53
2023-02-08T18:38:09.230Z,50.83
2023-02-08T18:40:46.373Z,58.93
2023-02-08T18:43:16.926Z,52.53
2023-02-08T18:45:50.301Z,64.00
2023-02-08T18:48:21.905Z,60.30
2023-02-08T18:50:58.683Z,57.30
2023-02-08T18:53:31.891Z,67.43
2023-02-08T18:56:08.711Z,51.67
2023-02-08T18:58:39.822Z,65.77
2023-02-08T19:01:13.554Z,87.70
2023-02-08T19:03:44.402Z,78.07
2023-02-08T19:06:16.959Z,73.27
2023-02-08T19:08:47.843Z,82.17
2023-02-08T19:11:23.007Z,75.23
2023-02-08T19:13:59.371Z,80.00
2023-02-08T19:16:29.949Z,69.93
2023-02-08T19:19:01.671Z,76.77
2023-02-08T19:21:35.734Z,66.23
2023-02-08T19:24:07.096Z,76.67
2023-02-08T19:26:50.746Z,80.93
2023-02-08T19:29:24.142Z,81.83
2023-02-08T19:31:56.501Z,85.80
2023-02-08T19:34:29.999Z,61.10
2023-02-08T19:37:00.158Z,64.73
2023-02-08T19:39:29.603Z,73.03
2023-02-08T19:42:19.286Z,70.33
2023-02-08T19:44:51.571Z,72.67
2023-02-08T19:47:43.375Z,66.60
2023-02-08T19:50:17.330Z,86.73
2023-02-08T19:52:47.324Z,76.07
2023-02-08T19:55:19.772Z,90.77
2023-02-08T19:57:54.956Z,75.83
2023-02-08T20:00:26.427Z,86.47
2023-02-08T20:02:57.924Z,81.63
2023-02-08T20:05:27.895Z,83.67
2023-02-08T20:08:02.767Z,67.80
2023-02-08T20:10:34.213Z,71.30
2023-02-08T20:13:12.131Z,71.50
2023-02-08T20:15:44.715Z,76.77
2023-02-08T20:18:18.413Z,65.33
2023-02-08T20:21:02.587Z,69.07
2023-02-08T20:23:36.396Z,73.20
2023-02-08T20:26:09.449Z,63.50
2023-02-08T20:29:15.331Z,70.67
2023-02-08T20:31:54.915Z,71.37
2023-02-08T20:34:27.407Z,73.80
2023-02-08T20:37:07.780Z,70.80
2023-02-08T20:39:39.249Z,68.30
2023-02-08T20:42:11.012Z,70.60
2023-02-08T20:44:47.501Z,78.63
2023-02-08T20:47:33.770Z,67.67
2023-02-08T20:50:32.831Z,73.60
2023-02-08T20:53:12.392Z,61.90
2023-02-08T20:55:45.446Z,74.30
2023-02-08T20:58:20.670Z,61.60
2023-02-08T21:00:54.003Z,74.67
2023-02-08T21:03:28.955Z,76.47
2023-02-08T21:05:58.988Z,72.47
2023-02-08T21:08:28.005Z,77.17
2023-02-08T21:10:57.684Z,70.23
2023-02-08T21:13:27.726Z,69.60
2023-02-08T21:15:59.468Z,79.70
2023-02-08T21:18:28.644Z,93.00
2023-02-08T21:20:58.144Z,82.57
2023-02-08T21:23:27.143Z,75.57
2023-02-08T21:25:56.423Z,83.60
2023-02-08T21:28:25.303Z,82.50
2023-02-08T21:30:59.755Z,81.10
2023-02-08T21:33:29.640Z,98.13
2023-02-08T21:36:02.694Z,74.10
2023-02-08T21:38:32.065Z,87.80
2023-02-08T21:41:00.820Z,85.43
2023-02-08T21:43:29.823Z,87.87
2023-02-08T21:46:04.552Z,100.43
2023-02-08T21:48:54.040Z,90.13
2023-02-08T21:51:42.154Z,90.73
2023-02-08T21:54:29.855Z,91.73
2023-02-08T21:57:00.813Z,95.07
2023-02-08T21:59:29.893Z,103.13
2023-02-08T22:02:00.096Z,105.60
2023-02-08T22:04:28.881Z,88.07
2023-02-08T22:06:57.710Z,97.70
2023-02-08T22:09:26.943Z,94.80
2023-02-08T22:11:56.500Z,78.83
2023-02-08T22:14:25.536Z,79.63
2023-02-08T22:16:54.326Z,93.80
2023-02-08T22:19:24.554Z,99.03
2023-02-08T22:21:53.430Z,97.47
2023-02-08T22:24:22.129Z,89.93
2023-02-08T22:26:50.895Z,80.53
2023-02-08T22:29:19.878Z,91.27
2023-02-08T22:31:48.752Z,92.43
2023-02-08T22:34:17.519Z,98.73
2023-02-08T22:36:47.985Z,85.87
2023-02-08T22:39:16.819Z,81.03
2023-02-08T22:41:45.689Z,106.40
2023-02-08T22:44:14.525Z,103.70
2023-02-08T22:46:43.334Z,98.30
2023-02-08T22:49:12.179Z,97.03
2023-02-08T22:51:41.017Z,107.00
2023-02-08T22:54:11.232Z,93.17
2023-02-08T22:56:40.377Z,79.73
2023-02-08T22:59:09.160Z,91.53
2023-02-08T23:01:38.190Z,81.63
2023-02-08T23:04:07.107Z,80.70
2023-02-08T23:06:36.022Z,100.60
2023-02-08T23:09:06.124Z,102.93
2023-02-08T23:11:36.405Z,104.90
2023-02-08T23:14:05.164Z,99.43
2023-02-08T23:16:33.969Z,102.97
2023-02-08T23:19:02.742Z,99.87
2023-02-08T23:21:31.597Z,107.93
2023-02-08T23:24:00.381Z,100.37
2023-02-08T23:26:29.165Z,99.67
2023-02-08T23:28:59.628Z,100.63
2023-02-08T23:31:28.619Z,100.03
2023-02-08T23:33:57.444Z,118.53
2023-02-08T23:36:26.278Z,95.10
2023-02-08T23:38:55.106Z,97.63
2023-02-08T23:41:25.323Z,103.97
2023-02-08T23:43:54.530Z,102.37
2023-02-08T23:46:27.209Z,92.30
2023-02-08T23:48:56.264Z,107.23
2023-02-08T23:51:26.816Z,110.17
2023-02-08T23:53:55.946Z,94.17
2023-02-08T23:56:27.277Z,99.07
2023-02-08T23:58:58.213Z,80.23
